sensor_id;sensor_type;location;lat;lon;timestamp;P1;durP1;ratioP1;P2;durP2;ratioP2
17372;SDS011;8803;48.116;11.590;2023-05-07T00:02:00;6.47;;;5.83;;
17372;SDS011;8803;48.116;11.590;2023-05-07T00:04:04;5.73;;;5.23;;
17372;SDS011;8803;48.116;11.590;2023-05-07T00:06:09;10.37;;;5.90;;
17372;SDS011;8803;48.116;11.590;2023-05-07T00:08:13;6.53;;;5.93;;
17372;SDS011;8803;48.116;11.590;2023-05-07T00:10:17;6.83;;;6.20;;
17372;SDS011;8803;48.116;11.590;2023-05-07T00:12:21;6.67;;;6.07;;
17372;SDS011;8803;48.116;11.590;2023-05-07T00:14:35;7.13;;;5.97;;
17372;SDS011;8803;48.116;11.590;2023-05-07T00:16:39;7.10;;;6.07;;
17372;SDS011;8803;48.116;11.590;2023-05-07T00:18:42;6.33;;;5.70;;
17372;SDS011;8803;48.116;11.590;2023-05-07T00:20:46;6.53;;;6.00;;
17372;SDS011;8803;48.116;11.590;2023-05-07T00:23:00;7.37;;;5.90;;
17372;SDS011;8803;48.116;11.590;2023-05-07T00:25:05;6.23;;;5.63;;
17372;SDS011;8803;48.116;11.590;2023-05-07T00:27:11;6.50;;;5.90;;
17372;SDS011;8803;48.116;11.590;2023-05-07T00:29:14;5.97;;;5.37;;
17372;SDS011;8803;48.116;11.590;2023-05-07T00:31:28;6.10;;;5.50;;
17372;SDS011;8803;48.116;11.590;2023-05-07T00:33:32;6.83;;;6.13;;
17372;SDS011;8803;48.116;11.590;2023-05-07T00:35:45;6.93;;;5.60;;
17372;SDS011;8803;48.116;11.590;2023-05-07T00:37:49;5.93;;;5.43;;
17372;SDS011;8803;48.116;11.590;2023-05-07T00:39:53;7.97;;;6.13;;
17372;SDS011;8803;48.116;11.590;2023-05-07T00:42:08;6.10;;;5.50;;
17372;SDS011;8803;48.116;11.590;2023-05-07T00:44:12;6.47;;;5.60;;
17372;SDS011;8803;48.116;11.590;2023-05-07T00:46:29;6.20;;;5.60;;
17372;SDS011;8803;48.116;11.590;2023-05-07T00:48:34;6.17;;;5.67;;
17372;SDS011;8803;48.116;11.590;2023-05-07T00:50:49;5.90;;;5.40;;
17372;SDS011;8803;48.116;11.590;2023-05-07T00:52:52;6.47;;;5.63;;
17372;SDS011;8803;48.116;11.590;2023-05-07T00:55:07;6.13;;;5.63;;
17372;SDS011;8803;48.116;11.590;2023-05-07T00:57:12;5.90;;;5.40;;
17372;SDS011;8803;48.116;11.590;2023-05-07T00:59:16;6.50;;;5.83;;
17372;SDS011;8803;48.116;11.590;2023-05-07T01:01:30;6.30;;;5.70;;
17372;SDS011;8803;48.116;11.590;2023-05-07T01:03:34;7.00;;;5.47;;
17372;SDS011;8803;48.116;11.590;2023-05-07T01:05:38;6.63;;;5.83;;
17372;SDS011;8803;48.116;11.590;2023-05-07T01:07:51;6.47;;;5.87;;
17372;SDS011;8803;48.116;11.590;2023-05-07T01:09:56;6.63;;;6.03;;
17372;SDS011;8803;48.116;11.590;2023-05-07T01:12:09;6.77;;;5.97;;
17372;SDS011;8803;48.116;11.590;2023-05-07T01:14:14;6.70;;;6.00;;
17372;SDS011;8803;48.116;11.590;2023-05-07T01:16:19;7.23;;;6.53;;
17372;SDS011;8803;48.116;11.590;2023-05-07T01:20:37;6.80;;;6.20;;
17372;SDS011;8803;48.116;11.590;2023-05-07T01:22:41;7.00;;;6.30;;
17372;SDS011;8803;48.116;11.590;2023-05-07T01:24:58;7.13;;;6.43;;
17372;SDS011;8803;48.116;11.590;2023-05-07T01:27:03;7.40;;;6.37;;
17372;SDS011;8803;48.116;11.590;2023-05-07T01:29:07;6.90;;;6.30;;
17372;SDS011;8803;48.116;11.590;2023-05-07T01:31:11;6.67;;;6.10;;
17372;SDS011;8803;48.116;11.590;2023-05-07T01:33:28;6.50;;;5.87;;
17372;SDS011;8803;48.116;11.590;2023-05-07T01:35:36;6.27;;;5.57;;
17372;SDS011;8803;48.116;11.590;2023-05-07T01:37:42;5.77;;;5.37;;
17372;SDS011;8803;48.116;11.590;2023-05-07T01:39:46;6.60;;;6.00;;
17372;SDS011;8803;48.116;11.590;2023-05-07T01:42:01;6.40;;;5.77;;
17372;SDS011;8803;48.116;11.590;2023-05-07T01:44:05;6.60;;;5.20;;
17372;SDS011;8803;48.116;11.590;2023-05-07T01:46:10;6.43;;;5.83;;
17372;SDS011;8803;48.116;11.590;2023-05-07T01:48:14;7.17;;;6.47;;
17372;SDS011;8803;48.116;11.590;2023-05-07T01:50:29;7.17;;;6.10;;
17372;SDS011;8803;48.116;11.590;2023-05-07T01:52:34;6.40;;;5.90;;
17372;SDS011;8803;48.116;11.590;2023-05-07T01:54:47;6.73;;;6.13;;
17372;SDS011;8803;48.116;11.590;2023-05-07T01:56:51;6.30;;;5.80;;
17372;SDS011;8803;48.116;11.590;2023-05-07T01:58:55;6.30;;;5.80;;
17372;SDS011;8803;48.116;11.590;2023-05-07T02:00:59;7.27;;;6.67;;
17372;SDS011;8803;48.116;11.590;2023-05-07T02:03:13;6.90;;;6.27;;
17372;SDS011;8803;48.116;11.590;2023-05-07T02:05:18;6.80;;;6.30;;
17372;SDS011;8803;48.116;11.590;2023-05-07T02:07:22;6.47;;;5.87;;
17372;SDS011;8803;48.116;11.590;2023-05-07T02:09:25;6.37;;;5.80;;
17372;SDS011;8803;48.116;11.590;2023-05-07T02:11:40;7.70;;;6.90;;
17372;SDS011;8803;48.116;11.590;2023-05-07T02:13:43;7.03;;;6.33;;
17372;SDS011;8803;48.116;11.590;2023-05-07T02:15:47;6.47;;;5.83;;
17372;SDS011;8803;48.116;11.590;2023-05-07T02:17:58;6.40;;;5.80;;
17372;SDS011;8803;48.116;11.590;2023-05-07T02:20:12;7.20;;;6.50;;
17372;SDS011;8803;48.116;11.590;2023-05-07T02:22:16;6.53;;;5.97;;
17372;SDS011;8803;48.116;11.590;2023-05-07T02:24:20;7.00;;;6.40;;
17372;SDS011;8803;48.116;11.590;2023-05-07T02:28:36;6.53;;;5.87;;
17372;SDS011;8803;48.116;11.590;2023-05-07T02:30:40;5.87;;;5.27;;
17372;SDS011;8803;48.116;11.590;2023-05-07T02:32:54;6.60;;;5.97;;
17372;SDS011;8803;48.116;11.590;2023-05-07T02:34:58;6.03;;;5.43;;
17372;SDS011;8803;48.116;11.590;2023-05-07T02:37:02;5.93;;;5.43;;
17372;SDS011;8803;48.116;11.590;2023-05-07T02:39:05;5.43;;;4.90;;
17372;SDS011;8803;48.116;11.590;2023-05-07T02:41:09;5.57;;;5.07;;
17372;SDS011;8803;48.116;11.590;2023-05-07T02:43:24;6.03;;;5.43;;
17372;SDS011;8803;48.116;11.590;2023-05-07T02:45:28;5.63;;;5.13;;
17372;SDS011;8803;48.116;11.590;2023-05-07T02:47:43;6.07;;;5.53;;
17372;SDS011;8803;48.116;11.590;2023-05-07T02:49:47;5.97;;;5.47;;
17372;SDS011;8803;48.116;11.590;2023-05-07T02:52:00;5.47;;;5.00;;
17372;SDS011;8803;48.116;11.590;2023-05-07T02:54:04;5.57;;;5.07;;
17372;SDS011;8803;48.116;11.590;2023-05-07T02:56:08;6.13;;;5.43;;
17372;SDS011;8803;48.116;11.590;2023-05-07T02:58:12;5.43;;;5.03;;
17372;SDS011;8803;48.116;11.590;2023-05-07T03:00:25;5.50;;;5.00;;
17372;SDS011;8803;48.116;11.590;2023-05-07T03:02:29;5.53;;;5.03;;
17372;SDS011;8803;48.116;11.590;2023-05-07T03:04:43;5.13;;;4.43;;
17372;SDS011;8803;48.116;11.590;2023-05-07T03:06:47;5.00;;;4.60;;
17372;SDS011;8803;48.116;11.590;2023-05-07T03:08:51;5.17;;;4.77;;
17372;SDS011;8803;48.116;11.590;2023-05-07T03:10:55;5.67;;;5.17;;
17372;SDS011;8803;48.116;11.590;2023-05-07T03:13:09;5.00;;;4.50;;
17372;SDS011;8803;48.116;11.590;2023-05-07T03:15:13;4.87;;;4.47;;
17372;SDS011;8803;48.116;11.590;2023-05-07T03:17:17;4.90;;;4.40;;
17372;SDS011;8803;48.116;11.590;2023-05-07T03:19:22;5.70;;;4.80;;
17372;SDS011;8803;48.116;11.590;2023-05-07T03:21:35;5.00;;;4.50;;
17372;SDS011;8803;48.116;11.590;2023-05-07T03:23:39;5.23;;;4.43;;
17372;SDS011;8803;48.116;11.590;2023-05-07T03:25:52;4.57;;;4.00;;
17372;SDS011;8803;48.116;11.590;2023-05-07T03:27:56;4.70;;;4.27;;
17372;SDS011;8803;48.116;11.590;2023-05-07T03:30:00;4.93;;;4.53;;
17372;SDS011;8803;48.116;11.590;2023-05-07T03:32:21;4.73;;;4.33;;
17372;SDS011;8803;48.116;11.590;2023-05-07T03:34:25;4.80;;;4.30;;
17372;SDS011;8803;48.116;11.590;2023-05-07T03:36:39;4.97;;;4.47;;
17372;SDS011;8803;48.116;11.590;2023-05-07T03:38:43;5.23;;;4.70;;
17372;SDS011;8803;48.116;11.590;2023-05-07T03:40:57;5.93;;;4.50;;
17372;SDS011;8803;48.116;11.590;2023-05-07T03:43:00;4.80;;;4.40;;
17372;SDS011;8803;48.116;11.590;2023-05-07T03:45:23;5.37;;;4.87;;
17372;SDS011;8803;48.116;11.590;2023-05-07T03:47:26;4.77;;;4.37;;
17372;SDS011;8803;48.116;11.590;2023-05-07T03:49:50;5.07;;;4.60;;
17372;SDS011;8803;48.116;11.590;2023-05-07T03:51:54;4.30;;;4.00;;
17372;SDS011;8803;48.116;11.590;2023-05-07T03:54:09;4.40;;;4.00;;
17372;SDS011;8803;48.116;11.590;2023-05-07T03:56:12;4.10;;;3.80;;
17372;SDS011;8803;48.116;11.590;2023-05-07T03:58:16;4.20;;;3.87;;
17372;SDS011;8803;48.116;11.590;2023-05-07T04:00:21;4.67;;;4.27;;
17372;SDS011;8803;48.116;11.590;2023-05-07T04:02:35;5.03;;;4.53;;
17372;SDS011;8803;48.116;11.590;2023-05-07T04:04:38;5.90;;;4.70;;
17372;SDS011;8803;48.116;11.590;2023-05-07T04:06:42;5.63;;;4.47;;
17372;SDS011;8803;48.116;11.590;2023-05-07T04:08:46;4.80;;;4.40;;
17372;SDS011;8803;48.116;11.590;2023-05-07T04:10:54;4.67;;;4.13;;
17372;SDS011;8803;48.116;11.590;2023-05-07T04:13:11;4.30;;;3.90;;
17372;SDS011;8803;48.116;11.590;2023-05-07T04:15:15;4.20;;;3.90;;
17372;SDS011;8803;48.116;11.590;2023-05-07T04:17:19;4.97;;;4.37;;
17372;SDS011;8803;48.116;11.590;2023-05-07T04:19:23;5.03;;;4.53;;
17372;SDS011;8803;48.116;11.590;2023-05-07T04:21:35;4.10;;;3.80;;
17372;SDS011;8803;48.116;11.590;2023-05-07T04:23:39;4.57;;;4.17;;
17372;SDS011;8803;48.116;11.590;2023-05-07T04:25:43;4.53;;;4.13;;
17372;SDS011;8803;48.116;11.590;2023-05-07T04:27:47;3.93;;;3.53;;
17372;SDS011;8803;48.116;11.590;2023-05-07T04:29:51;4.33;;;3.97;;
17372;SDS011;8803;48.116;11.590;2023-05-07T04:32:07;4.43;;;4.03;;
17372;SDS011;8803;48.116;11.590;2023-05-07T04:34:12;3.70;;;3.40;;
17372;SDS011;8803;48.116;11.590;2023-05-07T04:36:15;4.93;;;3.97;;
17372;SDS011;8803;48.116;11.590;2023-05-07T04:38:20;4.47;;;4.07;;
17372;SDS011;8803;48.116;11.590;2023-05-07T04:40:24;4.20;;;3.80;;
17372;SDS011;8803;48.116;11.590;2023-05-07T04:42:28;4.00;;;3.70;;
17372;SDS011;8803;48.116;11.590;2023-05-07T04:44:46;4.23;;;3.83;;
17372;SDS011;8803;48.116;11.590;2023-05-07T04:46:52;4.07;;;3.67;;
17372;SDS011;8803;48.116;11.590;2023-05-07T04:48:55;4.13;;;3.73;;
17372;SDS011;8803;48.116;11.590;2023-05-07T04:50:59;3.90;;;3.60;;
17372;SDS011;8803;48.116;11.590;2023-05-07T04:53:13;4.37;;;4.07;;
17372;SDS011;8803;48.116;11.590;2023-05-07T04:55:17;4.73;;;3.97;;
17372;SDS011;8803;48.116;11.590;2023-05-07T04:57:21;4.07;;;3.77;;
17372;SDS011;8803;48.116;11.590;2023-05-07T04:59:24;5.57;;;4.17;;
17372;SDS011;8803;48.116;11.590;2023-05-07T05:01:38;4.30;;;4.00;;
17372;SDS011;8803;48.116;11.590;2023-05-07T05:03:42;3.63;;;3.33;;
17372;SDS011;8803;48.116;11.590;2023-05-07T05:05:46;4.00;;;3.60;;
17372;SDS011;8803;48.116;11.590;2023-05-07T05:07:50;4.33;;;3.93;;
17372;SDS011;8803;48.116;11.590;2023-05-07T05:09:54;4.07;;;3.73;;
17372;SDS011;8803;48.116;11.590;2023-05-07T05:12:07;3.80;;;3.50;;
17372;SDS011;8803;48.116;11.590;2023-05-07T05:14:11;4.13;;;3.73;;
17372;SDS011;8803;48.116;11.590;2023-05-07T05:16:15;4.10;;;3.80;;
17372;SDS011;8803;48.116;11.590;2023-05-07T05:18:19;4.23;;;3.83;;
17372;SDS011;8803;48.116;11.590;2023-05-07T05:20:22;3.63;;;3.30;;
17372;SDS011;8803;48.116;11.590;2023-05-07T05:22:27;3.97;;;3.57;;
17372;SDS011;8803;48.116;11.590;2023-05-07T05:24:41;3.40;;;3.20;;
17372;SDS011;8803;48.116;11.590;2023-05-07T05:26:44;3.97;;;3.40;;
17372;SDS011;8803;48.116;11.590;2023-05-07T05:28:48;4.20;;;3.80;;
17372;SDS011;8803;48.116;11.590;2023-05-07T05:30:52;4.67;;;3.43;;
17372;SDS011;8803;48.116;11.590;2023-05-07T05:33:10;3.40;;;3.10;;
17372;SDS011;8803;48.116;11.590;2023-05-07T05:35:13;4.17;;;2.73;;
17372;SDS011;8803;48.116;11.590;2023-05-07T05:37:17;3.70;;;3.10;;
17372;SDS011;8803;48.116;11.590;2023-05-07T05:39:21;3.40;;;2.53;;
17372;SDS011;8803;48.116;11.590;2023-05-07T05:41:35;3.17;;;2.87;;
17372;SDS011;8803;48.116;11.590;2023-05-07T05:43:39;3.40;;;3.10;;
17372;SDS011;8803;48.116;11.590;2023-05-07T05:45:42;6.20;;;5.60;;
17372;SDS011;8803;48.116;11.590;2023-05-07T05:47:46;4.00;;;3.57;;
17372;SDS011;8803;48.116;11.590;2023-05-07T05:49:50;3.80;;;3.50;;
17372;SDS011;8803;48.116;11.590;2023-05-07T05:52:03;3.50;;;3.20;;
17372;SDS011;8803;48.116;11.590;2023-05-07T05:54:07;3.00;;;2.70;;
17372;SDS011;8803;48.116;11.590;2023-05-07T05:56:11;3.33;;;3.07;;
17372;SDS011;8803;48.116;11.590;2023-05-07T05:58:14;3.03;;;2.83;;
17372;SDS011;8803;48.116;11.590;2023-05-07T06:00:18;3.73;;;2.90;;
17372;SDS011;8803;48.116;11.590;2023-05-07T06:02:23;3.33;;;3.03;;
17372;SDS011;8803;48.116;11.590;2023-05-07T06:04:36;5.80;;;3.70;;
17372;SDS011;8803;48.116;11.590;2023-05-07T06:06:41;5.90;;;3.77;;
17372;SDS011;8803;48.116;11.590;2023-05-07T06:08:44;2.93;;;2.73;;
17372;SDS011;8803;48.116;11.590;2023-05-07T06:10:48;4.47;;;3.07;;
17372;SDS011;8803;48.116;11.590;2023-05-07T06:12:52;3.77;;;2.70;;
17372;SDS011;8803;48.116;11.590;2023-05-07T06:17:07;7.77;;;6.87;;
17372;SDS011;8803;48.116;11.590;2023-05-07T06:19:11;4.33;;;3.93;;
17372;SDS011;8803;48.116;11.590;2023-05-07T06:21:16;4.27;;;3.87;;
17372;SDS011;8803;48.116;11.590;2023-05-07T06:23:20;4.20;;;3.17;;
17372;SDS011;8803;48.116;11.590;2023-05-07T06:25:32;2.97;;;2.40;;
17372;SDS011;8803;48.116;11.590;2023-05-07T06:27:36;2.47;;;2.27;;
17372;SDS011;8803;48.116;11.590;2023-05-07T06:29:41;2.87;;;2.50;;
17372;SDS011;8803;48.116;11.590;2023-05-07T06:31:54;2.97;;;2.60;;
17372;SDS011;8803;48.116;11.590;2023-05-07T06:33:57;2.43;;;2.23;;
17372;SDS011;8803;48.116;11.590;2023-05-07T06:36:10;2.98;;;2.77;;
17372;SDS011;8803;48.116;11.590;2023-05-07T06:38:14;2.52;;;2.30;;
17372;SDS011;8803;48.116;11.590;2023-05-07T06:40:19;2.08;;;1.80;;
17372;SDS011;8803;48.116;11.590;2023-05-07T06:42:31;2.58;;;2.37;;
17372;SDS011;8803;48.116;11.590;2023-05-07T06:44:35;3.22;;;2.12;;
17372;SDS011;8803;48.116;11.590;2023-05-07T06:46:39;2.55;;;2.35;;
17372;SDS011;8803;48.116;11.590;2023-05-07T06:48:43;1.80;;;1.70;;
17372;SDS011;8803;48.116;11.590;2023-05-07T06:50:58;2.75;;;2.08;;
17372;SDS011;8803;48.116;11.590;2023-05-07T06:53:02;3.42;;;2.10;;
17372;SDS011;8803;48.116;11.590;2023-05-07T06:55:16;2.17;;;1.98;;
17372;SDS011;8803;48.116;11.590;2023-05-07T06:57:21;2.92;;;2.37;;
17372;SDS011;8803;48.116;11.590;2023-05-07T06:59:24;2.67;;;2.42;;
17372;SDS011;8803;48.116;11.590;2023-05-07T07:01:29;3.98;;;3.42;;
17372;SDS011;8803;48.116;11.590;2023-05-07T07:03:43;2.50;;;2.30;;
17372;SDS011;8803;48.116;11.590;2023-05-07T07:05:47;2.70;;;2.02;;
17372;SDS011;8803;48.116;11.590;2023-05-07T07:07:54;2.50;;;2.30;;
17372;SDS011;8803;48.116;11.590;2023-05-07T07:09:58;3.05;;;2.35;;
17372;SDS011;8803;48.116;11.590;2023-05-07T07:12:11;2.75;;;2.45;;
17372;SDS011;8803;48.116;11.590;2023-05-07T07:14:15;4.87;;;2.95;;
17372;SDS011;8803;48.116;11.590;2023-05-07T07:16:19;3.62;;;2.90;;
17372;SDS011;8803;48.116;11.590;2023-05-07T07:18:23;3.40;;;3.10;;
17372;SDS011;8803;48.116;11.590;2023-05-07T07:20:27;2.98;;;2.15;;
17372;SDS011;8803;48.116;11.590;2023-05-07T07:22:40;3.12;;;2.30;;
17372;SDS011;8803;48.116;11.590;2023-05-07T07:24:44;2.50;;;2.30;;
17372;SDS011;8803;48.116;11.590;2023-05-07T07:26:48;3.40;;;2.20;;
17372;SDS011;8803;48.116;11.590;2023-05-07T07:28:52;2.52;;;2.10;;
17372;SDS011;8803;48.116;11.590;2023-05-07T07:30:55;3.52;;;2.10;;
17372;SDS011;8803;48.116;11.590;2023-05-07T07:32:59;2.55;;;2.10;;
17372;SDS011;8803;48.116;11.590;2023-05-07T07:35:13;2.40;;;2.00;;
17372;SDS011;8803;48.116;11.590;2023-05-07T07:37:17;2.80;;;2.40;;
17372;SDS011;8803;48.116;11.590;2023-05-07T07:39:21;1.92;;;1.80;;
17372;SDS011;8803;48.116;11.590;2023-05-07T07:41:25;3.25;;;2.40;;
17372;SDS011;8803;48.116;11.590;2023-05-07T07:43:38;2.33;;;2.02;;
17372;SDS011;8803;48.116;11.590;2023-05-07T07:45:42;3.20;;;2.50;;
17372;SDS011;8803;48.116;11.590;2023-05-07T07:47:47;1.80;;;1.70;;
17372;SDS011;8803;48.116;11.590;2023-05-07T07:49:51;3.10;;;2.00;;
17372;SDS011;8803;48.116;11.590;2023-05-07T07:52:06;2.12;;;1.90;;
17372;SDS011;8803;48.116;11.590;2023-05-07T07:54:10;4.72;;;2.10;;
17372;SDS011;8803;48.116;11.590;2023-05-07T07:56:14;2.58;;;2.37;;
17372;SDS011;8803;48.116;11.590;2023-05-07T07:58:27;2.70;;;2.20;;
17372;SDS011;8803;48.116;11.590;2023-05-07T08:00:30;2.27;;;2.00;;
17372;SDS011;8803;48.116;11.590;2023-05-07T08:02:43;1.98;;;1.87;;
17372;SDS011;8803;48.116;11.590;2023-05-07T08:04:47;2.20;;;2.00;;
17372;SDS011;8803;48.116;11.590;2023-05-07T08:06:51;2.10;;;1.92;;
17372;SDS011;8803;48.116;11.590;2023-05-07T08:08:55;2.33;;;2.10;;
17372;SDS011;8803;48.116;11.590;2023-05-07T08:10:59;2.72;;;2.30;;
17372;SDS011;8803;48.116;11.590;2023-05-07T08:13:12;2.85;;;2.40;;
17372;SDS011;8803;48.116;11.590;2023-05-07T08:15:16;2.10;;;1.90;;
17372;SDS011;8803;48.116;11.590;2023-05-07T08:17:20;3.35;;;3.05;;
17372;SDS011;8803;48.116;11.590;2023-05-07T08:19:34;2.45;;;2.25;;
17372;SDS011;8803;48.116;11.590;2023-05-07T08:21:39;2.70;;;2.10;;
17372;SDS011;8803;48.116;11.590;2023-05-07T08:23:52;4.17;;;2.80;;
17372;SDS011;8803;48.116;11.590;2023-05-07T08:25:55;2.60;;;2.40;;
17372;SDS011;8803;48.116;11.590;2023-05-07T08:27:59;3.17;;;2.50;;
17372;SDS011;8803;48.116;11.590;2023-05-07T08:30:05;2.27;;;2.08;;
17372;SDS011;8803;48.116;11.590;2023-05-07T08:32:20;2.40;;;2.20;;
17372;SDS011;8803;48.116;11.590;2023-05-07T08:34:24;2.83;;;1.95;;
17372;SDS011;8803;48.116;11.590;2023-05-07T08:36:28;2.72;;;1.87;;
17372;SDS011;8803;48.116;11.590;2023-05-07T08:38:31;3.20;;;2.05;;
17372;SDS011;8803;48.116;11.590;2023-05-07T08:40:36;3.60;;;2.70;;
17372;SDS011;8803;48.116;11.590;2023-05-07T08:42:51;2.80;;;2.60;;
17372;SDS011;8803;48.116;11.590;2023-05-07T08:44:56;2.90;;;2.50;;
17372;SDS011;8803;48.116;11.590;2023-05-07T08:47:02;2.50;;;2.00;;
17372;SDS011;8803;48.116;11.590;2023-05-07T08:49:07;2.70;;;2.50;;
17372;SDS011;8803;48.116;11.590;2023-05-07T08:51:20;2.58;;;2.37;;
17372;SDS011;8803;48.116;11.590;2023-05-07T08:53:24;3.00;;;2.58;;
17372;SDS011;8803;48.116;11.590;2023-05-07T08:55:37;2.83;;;2.17;;
17372;SDS011;8803;48.116;11.590;2023-05-07T08:57:41;4.53;;;2.50;;
17372;SDS011;8803;48.116;11.590;2023-05-07T08:59:44;3.33;;;2.08;;
17372;SDS011;8803;48.116;11.590;2023-05-07T09:01:48;3.30;;;2.30;;
17372;SDS011;8803;48.116;11.590;2023-05-07T09:04:01;2.52;;;2.33;;
17372;SDS011;8803;48.116;11.590;2023-05-07T09:06:06;2.47;;;1.80;;
17372;SDS011;8803;48.116;11.590;2023-05-07T09:08:13;2.10;;;1.90;;
17372;SDS011;8803;48.116;11.590;2023-05-07T09:10:26;2.10;;;2.00;;
17372;SDS011;8803;48.116;11.590;2023-05-07T09:12:30;2.92;;;1.98;;
17372;SDS011;8803;48.116;11.590;2023-05-07T09:14:42;3.40;;;2.02;;
17372;SDS011;8803;48.116;11.590;2023-05-07T09:16:46;1.75;;;1.65;;
17372;SDS011;8803;48.116;11.590;2023-05-07T09:18:51;2.72;;;2.12;;
17372;SDS011;8803;48.116;11.590;2023-05-07T09:23:08;2.12;;;1.90;;
17372;SDS011;8803;48.116;11.590;2023-05-07T09:25:12;2.22;;;2.10;;
17372;SDS011;8803;48.116;11.590;2023-05-07T09:27:18;2.72;;;2.10;;
17372;SDS011;8803;48.116;11.590;2023-05-07T09:29:22;2.70;;;2.47;;
17372;SDS011;8803;48.116;11.590;2023-05-07T09:31:37;2.05;;;1.85;;
17372;SDS011;8803;48.116;11.590;2023-05-07T09:33:41;1.65;;;1.55;;
17372;SDS011;8803;48.116;11.590;2023-05-07T09:35:55;1.98;;;1.60;;
17372;SDS011;8803;48.116;11.590;2023-05-07T09:38:00;3.22;;;2.10;;
17372;SDS011;8803;48.116;11.590;2023-05-07T09:40:06;1.98;;;1.77;;
17372;SDS011;8803;48.116;11.590;2023-05-07T09:42:23;3.33;;;2.15;;
17372;SDS011;8803;48.116;11.590;2023-05-07T09:44:28;3.05;;;2.12;;
17372;SDS011;8803;48.116;11.590;2023-05-07T09:46:33;6.58;;;2.00;;
17372;SDS011;8803;48.116;11.590;2023-05-07T09:48:40;3.60;;;1.98;;
17372;SDS011;8803;48.116;11.590;2023-05-07T09:50:45;3.80;;;1.87;;
17372;SDS011;8803;48.116;11.590;2023-05-07T09:52:51;2.27;;;2.08;;
17372;SDS011;8803;48.116;11.590;2023-05-07T09:55:07;1.65;;;1.55;;
17372;SDS011;8803;48.116;11.590;2023-05-07T09:57:12;2.10;;;1.90;;
17372;SDS011;8803;48.116;11.590;2023-05-07T09:59:17;2.35;;;1.75;;
17372;SDS011;8803;48.116;11.590;2023-05-07T10:01:22;3.12;;;2.40;;
17372;SDS011;8803;48.116;11.590;2023-05-07T10:03:28;2.90;;;2.40;;
17372;SDS011;8803;48.116;11.590;2023-05-07T10:05:43;1.95;;;1.77;;
17372;SDS011;8803;48.116;11.590;2023-05-07T10:07:48;2.45;;;1.60;;
17372;SDS011;8803;48.116;11.590;2023-05-07T10:09:53;2.67;;;1.90;;
17372;SDS011;8803;48.116;11.590;2023-05-07T10:12:07;3.00;;;2.20;;
17372;SDS011;8803;48.116;11.590;2023-05-07T10:14:11;1.95;;;1.77;;
17372;SDS011;8803;48.116;11.590;2023-05-07T10:16:16;1.95;;;1.75;;
17372;SDS011;8803;48.116;11.590;2023-05-07T10:18:20;2.25;;;1.60;;
17372;SDS011;8803;48.116;11.590;2023-05-07T10:20:27;2.98;;;2.08;;
17372;SDS011;8803;48.116;11.590;2023-05-07T10:22:43;3.35;;;1.72;;
17372;SDS011;8803;48.116;11.590;2023-05-07T10:24:49;1.80;;;1.65;;
17372;SDS011;8803;48.116;11.590;2023-05-07T10:27:05;2.05;;;1.85;;
17372;SDS011;8803;48.116;11.590;2023-05-07T10:29:14;2.50;;;2.00;;
17372;SDS011;8803;48.116;11.590;2023-05-07T10:31:27;2.22;;;2.02;;
17372;SDS011;8803;48.116;11.590;2023-05-07T10:34:00;1.90;;;1.60;;
17372;SDS011;8803;48.116;11.590;2023-05-07T10:36:07;3.22;;;2.20;;
17372;SDS011;8803;48.116;11.590;2023-05-07T10:38:11;2.62;;;2.10;;
17372;SDS011;8803;48.116;11.590;2023-05-07T10:40:25;4.05;;;2.62;;
17372;SDS011;8803;48.116;11.590;2023-05-07T10:42:28;4.08;;;1.98;;
17372;SDS011;8803;48.116;11.590;2023-05-07T10:44:41;2.20;;;2.00;;
17372;SDS011;8803;48.116;11.590;2023-05-07T10:46:46;2.05;;;1.72;;
17372;SDS011;8803;48.116;11.590;2023-05-07T10:49:09;2.95;;;1.40;;
17372;SDS011;8803;48.116;11.590;2023-05-07T10:51:22;1.98;;;1.50;;
17372;SDS011;8803;48.116;11.590;2023-05-07T10:53:26;2.30;;;1.98;;
17372;SDS011;8803;48.116;11.590;2023-05-07T10:55:40;3.25;;;1.85;;
17372;SDS011;8803;48.116;11.590;2023-05-07T10:57:44;2.75;;;1.72;;
17372;SDS011;8803;48.116;11.590;2023-05-07T10:59:48;1.82;;;1.72;;
17372;SDS011;8803;48.116;11.590;2023-05-07T11:02:01;3.08;;;2.40;;
17372;SDS011;8803;48.116;11.590;2023-05-07T11:04:13;1.72;;;1.57;;
17372;SDS011;8803;48.116;11.590;2023-05-07T11:06:18;1.57;;;1.47;;
17372;SDS011;8803;48.116;11.590;2023-05-07T11:08:22;2.58;;;2.10;;
17372;SDS011;8803;48.116;11.590;2023-05-07T11:10:34;1.65;;;1.50;;
17372;SDS011;8803;48.116;11.590;2023-05-07T11:13:00;3.22;;;2.12;;
17372;SDS011;8803;48.116;11.590;2023-05-07T11:15:05;2.83;;;2.33;;
17372;SDS011;8803;48.116;11.590;2023-05-07T11:17:10;2.67;;;2.00;;
17372;SDS011;8803;48.116;11.590;2023-05-07T11:19:14;2.70;;;2.10;;
17372;SDS011;8803;48.116;11.590;2023-05-07T11:21:32;3.83;;;2.17;;
17372;SDS011;8803;48.116;11.590;2023-05-07T11:26:17;2.50;;;2.10;;
17372;SDS011;8803;48.116;11.590;2023-05-07T11:28:22;2.80;;;2.27;;
17372;SDS011;8803;48.116;11.590;2023-05-07T11:30:26;3.12;;;2.67;;
17372;SDS011;8803;48.116;11.590;2023-05-07T11:32:38;3.33;;;2.80;;
17372;SDS011;8803;48.116;11.590;2023-05-07T11:34:43;2.70;;;2.50;;
17372;SDS011;8803;48.116;11.590;2023-05-07T11:36:49;3.92;;;2.72;;
17372;SDS011;8803;48.116;11.590;2023-05-07T11:38:53;2.90;;;2.70;;
17372;SDS011;8803;48.116;11.590;2023-05-07T11:41:06;2.70;;;2.35;;
17372;SDS011;8803;48.116;11.590;2023-05-07T11:43:11;3.87;;;3.47;;
17372;SDS011;8803;48.116;11.590;2023-05-07T11:45:23;3.35;;;2.98;;
17372;SDS011;8803;48.116;11.590;2023-05-07T11:47:29;5.33;;;3.58;;
17372;SDS011;8803;48.116;11.590;2023-05-07T11:49:32;2.60;;;2.22;;
17372;SDS011;8803;48.116;11.590;2023-05-07T11:53:49;3.15;;;2.90;;
17372;SDS011;8803;48.116;11.590;2023-05-07T11:55:53;3.50;;;3.10;;
17372;SDS011;8803;48.116;11.590;2023-05-07T11:57:58;2.47;;;2.27;;
17372;SDS011;8803;48.116;11.590;2023-05-07T12:00:15;3.55;;;3.20;;
17372;SDS011;8803;48.116;11.590;2023-05-07T12:02:18;4.17;;;3.22;;
17372;SDS011;8803;48.116;11.590;2023-05-07T12:06:36;4.40;;;3.25;;
17372;SDS011;8803;48.116;11.590;2023-05-07T12:08:40;2.62;;;2.37;;
17372;SDS011;8803;48.116;11.590;2023-05-07T12:12:58;3.63;;;2.90;;
17372;SDS011;8803;48.116;11.590;2023-05-07T12:15:02;4.25;;;3.85;;
17372;SDS011;8803;48.116;11.590;2023-05-07T12:17:06;2.55;;;2.35;;
17372;SDS011;8803;48.116;11.590;2023-05-07T12:19:11;6.30;;;3.10;;
17372;SDS011;8803;48.116;11.590;2023-05-07T12:21:15;5.62;;;3.47;;
17372;SDS011;8803;48.116;11.590;2023-05-07T12:23:29;4.45;;;2.50;;
17372;SDS011;8803;48.116;11.590;2023-05-07T12:25:34;3.50;;;3.20;;
17372;SDS011;8803;48.116;11.590;2023-05-07T12:27:40;3.37;;;2.90;;
17372;SDS011;8803;48.116;11.590;2023-05-07T12:29:44;4.08;;;3.08;;
17372;SDS011;8803;48.116;11.590;2023-05-07T12:31:57;2.52;;;2.33;;
17372;SDS011;8803;48.116;11.590;2023-05-07T12:34:01;3.65;;;2.80;;
17372;SDS011;8803;48.116;11.590;2023-05-07T12:36:06;4.35;;;3.00;;
17372;SDS011;8803;48.116;11.590;2023-05-07T12:38:11;2.50;;;2.30;;
17372;SDS011;8803;48.116;11.590;2023-05-07T12:40:18;3.20;;;2.90;;
17372;SDS011;8803;48.116;11.590;2023-05-07T12:42:35;4.87;;;2.45;;
17372;SDS011;8803;48.116;11.590;2023-05-07T12:44:40;3.47;;;2.85;;
17372;SDS011;8803;48.116;11.590;2023-05-07T12:46:47;2.70;;;2.33;;
17372;SDS011;8803;48.116;11.590;2023-05-07T12:48:50;4.33;;;2.70;;
17372;SDS011;8803;48.116;11.590;2023-05-07T12:51:05;4.40;;;2.70;;
17372;SDS011;8803;48.116;11.590;2023-05-07T12:53:11;2.80;;;2.52;;
17372;SDS011;8803;48.116;11.590;2023-05-07T12:55:24;2.52;;;2.33;;
17372;SDS011;8803;48.116;11.590;2023-05-07T12:57:28;3.40;;;2.58;;
17372;SDS011;8803;48.116;11.590;2023-05-07T12:59:32;2.62;;;2.42;;
17372;SDS011;8803;48.116;11.590;2023-05-07T13:03:49;2.85;;;2.27;;
17372;SDS011;8803;48.116;11.590;2023-05-07T13:05:53;2.42;;;2.22;;
17372;SDS011;8803;48.116;11.590;2023-05-07T13:08:06;2.62;;;2.00;;